Monterey, Indiana
Current Conditions -  °F | °C
As of 7:15 AM on Sunday 23 Nov 2014 (Local Time) from KOXI Reporting Station
Overcast Overcast  
Wind Chill:   Ceiling: 7000
Heat Index:   Visibility: 10mi
Dew Point:   Wind: 13mph
Humidity: 80%   Direction: 170°S
Pressure: 29.82"   Gusts: NA
Location:  41.16°N, 86.48°W
Report Text: KOXI 231315Z AUTO 17011KT 10SM BKN070 OVC080 09/06 A2982 RMK AO1 T00880056
Loading
Personal Weather Stations






























Interactive Weather Map New forecast layout! Learn more

10-Day Weather Forecast

Advertisements
Track Severe Weather on mobile